createdAt,value
2022-12-15T00:00:01.792Z,31.30
2022-12-15T00:02:47.346Z,30.47
2022-12-15T00:05:33.172Z,30.07
2022-12-15T00:08:26.929Z,27.10
2022-12-15T00:11:12.667Z,28.87
2022-12-15T00:14:00.094Z,29.43
2022-12-15T00:16:45.447Z,30.83
2022-12-15T00:19:30.813Z,29.10
2022-12-15T00:22:16.088Z,31.70
2022-12-15T00:25:03.095Z,30.90
2022-12-15T00:27:48.567Z,29.37
2022-12-15T00:30:34.134Z,27.30
2022-12-15T00:33:19.654Z,28.90
2022-12-15T00:36:05.085Z,31.93
2022-12-15T00:38:43.986Z,29.10
2022-12-15T00:41:15.328Z,28.87
2022-12-15T00:43:44.034Z,29.87
2022-12-15T00:46:29.332Z,29.40
2022-12-15T00:48:57.511Z,26.50
2022-12-15T00:51:43.371Z,27.80
2022-12-15T00:54:29.248Z,26.30
2022-12-15T00:57:16.171Z,31.00
2022-12-15T01:00:01.771Z,29.87
2022-12-15T01:02:46.925Z,27.27
2022-12-15T01:05:32.586Z,27.37
2022-12-15T01:08:18.416Z,26.93
2022-12-15T01:11:03.555Z,26.37
2022-12-15T01:13:50.119Z,28.63
2022-12-15T01:16:36.093Z,27.80
2022-12-15T01:19:21.601Z,27.97
2022-12-15T01:21:50.125Z,30.17
2022-12-15T01:24:18.277Z,25.07
2022-12-15T01:26:46.353Z,24.03
2022-12-15T01:29:15.970Z,26.00
2022-12-15T01:31:44.382Z,25.27
2022-12-15T01:34:22.552Z,26.23
2022-12-15T01:36:50.388Z,24.20
2022-12-15T01:39:18.242Z,26.03
2022-12-15T01:41:45.226Z,26.80
2022-12-15T01:44:19.402Z,25.33
2022-12-15T01:46:50.527Z,26.67
2022-12-15T01:49:23.226Z,25.23
2022-12-15T01:51:56.896Z,26.63
2022-12-15T01:54:30.264Z,22.97
2022-12-15T01:57:02.034Z,25.10
2022-12-15T01:59:37.058Z,25.57
2022-12-15T02:02:05.789Z,25.43
2022-12-15T02:04:34.839Z,26.17
2022-12-15T02:07:02.967Z,25.70
2022-12-15T02:09:31.695Z,28.13
2022-12-15T02:12:03.311Z,24.17
2022-12-15T02:14:49.869Z,25.57
2022-12-15T02:17:28.482Z,25.10
2022-12-15T02:20:35.056Z,26.87
2022-12-15T02:23:50.318Z,26.07
2022-12-15T02:26:59.226Z,25.60
2022-12-15T02:29:53.913Z,23.30
2022-12-15T02:32:27.907Z,25.20
2022-12-15T02:35:03.324Z,25.23
2022-12-15T02:37:34.385Z,24.47
2022-12-15T02:40:02.962Z,22.80
2022-12-15T02:42:34.193Z,25.93
2022-12-15T02:45:06.660Z,25.03
2022-12-15T02:47:46.246Z,23.77
2022-12-15T02:50:43.029Z,23.27
2022-12-15T02:53:25.275Z,21.27
2022-12-15T02:56:05.442Z,25.70
2022-12-15T02:58:40.053Z,22.20
2022-12-15T03:01:16.181Z,22.77
2022-12-15T03:03:47.865Z,21.03
2022-12-15T03:06:17.356Z,22.20
2022-12-15T03:08:45.438Z,21.10
2022-12-15T03:11:13.532Z,22.47
2022-12-15T03:13:41.628Z,23.27
2022-12-15T03:16:09.746Z,22.43
2022-12-15T03:18:38.253Z,22.30
2022-12-15T03:21:07.687Z,25.27
2022-12-15T03:23:35.702Z,23.93
2022-12-15T03:26:03.809Z,19.73
2022-12-15T03:28:31.702Z,21.17
2022-12-15T03:30:59.878Z,21.67
2022-12-15T03:33:28.307Z,23.63
2022-12-15T03:35:56.634Z,22.03
2022-12-15T03:38:26.099Z,20.50
2022-12-15T03:40:54.102Z,20.17
2022-12-15T03:43:21.978Z,23.37
2022-12-15T03:45:50.325Z,22.57
2022-12-15T03:48:18.735Z,21.17
2022-12-15T03:50:49.022Z,23.37
2022-12-15T03:53:17.016Z,23.43
2022-12-15T03:55:46.581Z,19.63
2022-12-15T03:58:14.554Z,19.50
2022-12-15T04:00:44.984Z,19.43
2022-12-15T04:03:13.349Z,23.33
2022-12-15T04:05:41.401Z,21.00
2022-12-15T04:08:09.481Z,21.87
2022-12-15T04:10:37.413Z,20.20
2022-12-15T04:13:08.879Z,21.00
2022-12-15T04:15:38.509Z,22.60
2022-12-15T04:18:10.374Z,21.23
2022-12-15T04:20:38.970Z,24.03
2022-12-15T04:23:08.059Z,22.63
2022-12-15T04:25:54.371Z,23.80
2022-12-15T04:28:41.553Z,23.47
2022-12-15T04:31:29.004Z,22.93
2022-12-15T04:34:17.278Z,26.03
2022-12-15T04:37:05.364Z,21.20
2022-12-15T04:39:52.786Z,19.53
2022-12-15T04:42:38.336Z,22.43
2022-12-15T04:45:27.643Z,23.57
2022-12-15T04:48:12.678Z,23.83
2022-12-15T04:50:58.333Z,23.80
2022-12-15T04:53:43.786Z,23.33
2022-12-15T04:56:30.535Z,20.67
2022-12-15T04:59:15.744Z,22.70
2022-12-15T05:02:02.727Z,21.23
2022-12-15T05:04:48.598Z,22.10
2022-12-15T05:07:34.184Z,21.00
2022-12-15T05:10:19.979Z,22.53
2022-12-15T05:13:05.598Z,23.17
2022-12-15T05:15:52.211Z,19.93
2022-12-15T05:18:39.613Z,25.30
2022-12-15T05:21:25.574Z,22.80
2022-12-15T05:24:11.148Z,22.43
2022-12-15T05:26:56.913Z,26.53
2022-12-15T05:29:42.212Z,21.30
2022-12-15T05:32:11.900Z,21.70
2022-12-15T05:34:41.185Z,21.13
2022-12-15T05:37:09.287Z,22.50
2022-12-15T05:39:37.361Z,22.57
2022-12-15T05:42:05.653Z,22.63
2022-12-15T05:44:33.510Z,20.97
2022-12-15T05:47:01.637Z,24.03
2022-12-15T05:49:29.549Z,21.43
2022-12-15T05:51:58.891Z,21.47
2022-12-15T05:54:26.832Z,21.30
2022-12-15T05:56:54.618Z,24.93
2022-12-15T05:59:22.688Z,21.53
2022-12-15T06:01:50.603Z,22.30
2022-12-15T06:04:18.560Z,21.50
2022-12-15T06:06:46.493Z,18.40
2022-12-15T06:09:15.982Z,21.23
2022-12-15T06:11:46.016Z,18.93
2022-12-15T06:14:19.467Z,20.93
2022-12-15T06:16:51.179Z,18.73
2022-12-15T06:19:20.165Z,20.67
2022-12-15T06:21:47.988Z,24.00
2022-12-15T06:24:17.212Z,22.03
2022-12-15T06:26:45.098Z,19.97
2022-12-15T06:29:14.383Z,21.43
2022-12-15T06:31:43.943Z,20.13
2022-12-15T06:34:14.348Z,20.77
2022-12-15T06:36:42.369Z,22.63
2022-12-15T06:39:13.015Z,21.90
2022-12-15T06:41:43.149Z,23.10
2022-12-15T06:44:14.400Z,23.00
2022-12-15T06:46:42.895Z,23.30
2022-12-15T06:49:10.853Z,24.50
2022-12-15T06:51:39.525Z,22.50
2022-12-15T06:54:07.594Z,26.87
2022-12-15T06:56:37.078Z,27.20
2022-12-15T06:59:08.382Z,26.70
2022-12-15T07:01:36.904Z,27.87
2022-12-15T07:04:05.791Z,24.53
2022-12-15T07:06:37.576Z,27.00
2022-12-15T07:09:08.330Z,23.80
2022-12-15T07:11:36.725Z,25.90
2022-12-15T07:14:06.155Z,25.27
2022-12-15T07:16:34.685Z,25.80
2022-12-15T07:19:02.726Z,25.33
2022-12-15T07:21:31.782Z,21.83
2022-12-15T07:24:00.521Z,25.63
2022-12-15T07:26:29.178Z,26.00
2022-12-15T07:28:57.095Z,22.97
2022-12-15T07:31:26.366Z,23.80
2022-12-15T07:33:55.074Z,26.03
2022-12-15T07:36:23.162Z,26.77
2022-12-15T07:38:51.886Z,23.70
2022-12-15T07:41:21.054Z,25.17
2022-12-15T07:43:49.276Z,25.47
2022-12-15T07:46:17.403Z,25.20
2022-12-15T07:48:50.186Z,25.90
2022-12-15T07:51:21.094Z,23.60
2022-12-15T07:53:50.023Z,24.37
2022-12-15T07:56:19.168Z,24.33
2022-12-15T07:58:47.223Z,24.63
2022-12-15T08:01:16.393Z,27.43
2022-12-15T08:03:45.137Z,24.77
2022-12-15T08:06:16.340Z,27.40
2022-12-15T08:08:50.802Z,24.40
2022-12-15T08:11:20.436Z,24.80
2022-12-15T08:14:02.724Z,24.43
2022-12-15T08:16:34.634Z,25.13
2022-12-15T08:19:02.861Z,25.53
2022-12-15T08:21:32.356Z,27.93
2022-12-15T08:24:01.926Z,25.43
2022-12-15T08:26:31.044Z,26.53
2022-12-15T08:29:24.387Z,24.57
2022-12-15T08:31:50.968Z,28.90
2022-12-15T08:34:19.027Z,26.50
2022-12-15T08:36:48.369Z,25.50
2022-12-15T08:39:16.572Z,30.93
2022-12-15T08:41:44.893Z,24.93
2022-12-15T08:44:12.832Z,24.17
2022-12-15T08:46:40.984Z,22.80
2022-12-15T08:49:09.262Z,27.63
2022-12-15T08:51:37.893Z,26.53
2022-12-15T08:54:07.201Z,27.37
2022-12-15T08:56:36.749Z,26.07
2022-12-15T08:59:04.851Z,26.13
2022-12-15T09:01:33.414Z,29.13
2022-12-15T09:04:02.278Z,25.13
2022-12-15T09:06:35.285Z,24.63
2022-12-15T09:09:05.654Z,25.10
2022-12-15T09:11:35.571Z,24.60
2022-12-15T09:14:03.845Z,24.90
2022-12-15T09:16:31.992Z,28.90
2022-12-15T09:19:01.107Z,27.50
2022-12-15T09:21:32.000Z,25.33
2022-12-15T09:24:02.214Z,28.17
2022-12-15T09:26:32.488Z,29.03
2022-12-15T09:29:02.946Z,29.87
2022-12-15T09:31:33.470Z,27.90
2022-12-15T09:34:02.583Z,25.67
2022-12-15T09:36:32.615Z,34.73
2022-12-15T09:39:01.974Z,25.60
2022-12-15T09:41:32.148Z,24.93
2022-12-15T09:44:05.268Z,24.67
2022-12-15T09:46:50.240Z,24.23
2022-12-15T09:49:26.407Z,30.80
2022-12-15T09:52:01.028Z,25.87
2022-12-15T09:54:33.404Z,33.83
2022-12-15T09:57:06.361Z,28.17
2022-12-15T09:59:43.434Z,26.47
2022-12-15T10:02:30.434Z,24.37
2022-12-15T10:05:07.098Z,26.30
2022-12-15T10:07:42.272Z,25.20
2022-12-15T10:10:18.930Z,24.17
2022-12-15T10:12:59.903Z,22.47
2022-12-15T10:15:37.303Z,21.70
2022-12-15T10:18:12.835Z,21.40
2022-12-15T10:20:41.329Z,21.57
2022-12-15T10:23:15.359Z,21.93
2022-12-15T10:25:51.485Z,24.43
2022-12-15T10:28:51.348Z,22.10
2022-12-15T10:31:32.804Z,23.77
2022-12-15T10:34:23.348Z,22.87
2022-12-15T10:36:54.850Z,19.43
2022-12-15T10:39:24.175Z,20.47
2022-12-15T10:42:12.522Z,21.33
2022-12-15T10:44:42.743Z,21.90
2022-12-15T10:47:19.015Z,20.60
2022-12-15T10:49:48.988Z,19.23
2022-12-15T10:52:24.469Z,21.73
2022-12-15T10:54:56.556Z,20.90
2022-12-15T10:57:29.118Z,21.20
2022-12-15T10:59:59.952Z,28.10
2022-12-15T11:02:36.832Z,19.50
2022-12-15T11:05:11.172Z,19.60
2022-12-15T11:07:43.213Z,20.23
2022-12-15T11:10:21.313Z,22.07
2022-12-15T11:12:59.831Z,19.33
2022-12-15T11:15:40.126Z,20.23
2022-12-15T11:18:17.219Z,19.13
2022-12-15T11:20:52.012Z,23.20
2022-12-15T11:23:28.091Z,19.00
2022-12-15T11:26:06.777Z,17.97
2022-12-15T11:28:42.448Z,19.97
2022-12-15T11:31:18.716Z,15.10
2022-12-15T11:33:49.316Z,16.33
2022-12-15T11:36:25.635Z,18.93
2022-12-15T11:39:00.248Z,14.90
2022-12-15T11:41:39.638Z,15.77
2022-12-15T11:44:26.900Z,17.07
2022-12-15T11:47:07.220Z,15.40
2022-12-15T11:49:54.214Z,16.97
2022-12-15T11:52:35.896Z,15.63
2022-12-15T11:55:16.318Z,15.10
2022-12-15T11:58:02.316Z,16.07
2022-12-15T12:00:35.676Z,15.03
2022-12-15T12:03:16.186Z,17.97
2022-12-15T12:05:58.526Z,17.73
2022-12-15T12:09:04.094Z,13.93
2022-12-15T12:11:41.583Z,18.30
2022-12-15T12:14:20.781Z,17.87
2022-12-15T12:16:55.773Z,16.33
2022-12-15T12:19:28.808Z,19.57
2022-12-15T12:22:03.665Z,16.23
2022-12-15T12:24:36.704Z,17.57
2022-12-15T12:27:12.583Z,39.03
2022-12-15T12:29:48.717Z,18.10
2022-12-15T12:32:25.355Z,15.83
2022-12-15T12:35:31.676Z,17.37
2022-12-15T12:38:03.129Z,13.67
2022-12-15T12:40:42.287Z,12.67
2022-12-15T12:43:14.397Z,12.27
2022-12-15T12:45:50.807Z,12.67
2022-12-15T12:48:25.944Z,13.30
2022-12-15T12:51:10.886Z,14.97
2022-12-15T12:53:40.198Z,14.17
2022-12-15T12:56:08.371Z,15.90
2022-12-15T12:58:39.689Z,13.93
2022-12-15T13:01:21.104Z,14.30
2022-12-15T13:04:07.622Z,13.03
2022-12-15T13:06:59.582Z,12.30
2022-12-15T13:09:40.368Z,13.13
2022-12-15T13:12:53.183Z,13.03
2022-12-15T13:15:35.682Z,13.97
2022-12-15T13:18:08.356Z,12.60
2022-12-15T13:20:38.127Z,17.53
2022-12-15T13:23:41.505Z,15.13
2022-12-15T13:26:20.829Z,11.80
2022-12-15T13:28:53.432Z,15.33
2022-12-15T13:31:33.687Z,12.20
2022-12-15T13:34:15.390Z,13.63
2022-12-15T13:37:02.496Z,16.33
2022-12-15T13:39:58.925Z,12.90
2022-12-15T13:42:53.226Z,12.37
2022-12-15T13:45:42.901Z,11.30
2022-12-15T13:48:21.470Z,13.10
2022-12-15T13:50:57.216Z,12.53
2022-12-15T13:53:26.868Z,16.23
2022-12-15T13:56:01.782Z,14.07
2022-12-15T13:58:34.852Z,12.20
2022-12-15T14:01:03.864Z,13.10
2022-12-15T14:03:32.301Z,11.50
2022-12-15T14:06:01.547Z,12.63
2022-12-15T14:08:31.716Z,13.97
2022-12-15T14:11:22.235Z,13.57
2022-12-15T14:13:54.678Z,12.27
2022-12-15T14:16:24.770Z,12.93
2022-12-15T14:19:11.561Z,11.30
2022-12-15T14:21:39.832Z,14.00
2022-12-15T14:24:40.232Z,9.13
2022-12-15T14:27:09.772Z,13.07
2022-12-15T14:29:39.890Z,17.23
2022-12-15T14:32:11.034Z,15.03
2022-12-15T14:34:41.966Z,14.17
2022-12-15T14:37:14.985Z,12.10
2022-12-15T14:39:46.763Z,11.47
2022-12-15T14:42:19.055Z,14.73
2022-12-15T14:44:54.919Z,12.87
2022-12-15T14:47:29.619Z,11.90
2022-12-15T14:50:02.590Z,9.53
2022-12-15T14:52:36.199Z,13.07
2022-12-15T14:55:27.537Z,12.53
2022-12-15T14:57:58.697Z,10.60
2022-12-15T15:00:34.068Z,12.33
2022-12-15T15:05:58.268Z,12.10
2022-12-15T15:08:29.822Z,12.27
2022-12-15T15:11:02.942Z,12.17
2022-12-15T15:13:40.111Z,15.70
2022-12-15T15:16:19.174Z,12.40
2022-12-15T15:18:51.123Z,12.80
2022-12-15T15:21:22.983Z,11.83
2022-12-15T15:24:22.688Z,12.87
2022-12-15T15:26:50.771Z,11.13
2022-12-15T15:29:41.088Z,11.73
2022-12-15T15:32:17.431Z,11.53
2022-12-15T15:34:47.139Z,13.43
2022-12-15T15:37:20.119Z,15.57
2022-12-15T15:39:50.360Z,13.23
2022-12-15T15:42:18.897Z,11.43
2022-12-15T15:44:47.599Z,9.73
2022-12-15T15:47:23.315Z,10.83
2022-12-15T15:49:54.948Z,11.77
2022-12-15T15:52:23.884Z,12.70
2022-12-15T15:54:54.247Z,15.03
2022-12-15T15:57:22.618Z,13.07
2022-12-15T15:59:51.143Z,11.73
2022-12-15T16:02:20.917Z,11.77
2022-12-15T16:04:49.015Z,14.83
2022-12-15T16:07:24.094Z,12.17
2022-12-15T16:09:52.429Z,10.47
2022-12-15T16:12:27.616Z,15.73
2022-12-15T16:14:56.246Z,37.53
2022-12-15T16:17:25.797Z,16.97
2022-12-15T16:19:53.780Z,16.33
2022-12-15T16:22:23.442Z,12.13
2022-12-15T16:24:51.392Z,13.83
2022-12-15T16:27:19.266Z,13.80
2022-12-15T16:29:47.266Z,12.70
2022-12-15T16:32:15.518Z,13.53
2022-12-15T16:34:44.947Z,11.40
2022-12-15T16:37:26.303Z,11.90
2022-12-15T16:39:54.401Z,17.60
2022-12-15T16:42:23.259Z,13.33
2022-12-15T16:44:51.200Z,12.80
2022-12-15T16:47:19.243Z,13.23
2022-12-15T16:49:48.510Z,15.27
2022-12-15T16:52:20.848Z,14.13
2022-12-15T16:54:50.185Z,15.50
2022-12-15T16:57:18.455Z,15.23
2022-12-15T16:59:46.486Z,12.30
2022-12-15T17:02:27.004Z,16.17
2022-12-15T17:04:56.760Z,15.60
2022-12-15T17:07:27.890Z,15.10
2022-12-15T17:09:55.805Z,15.13
2022-12-15T17:12:23.665Z,17.73
2022-12-15T17:14:51.743Z,17.13
2022-12-15T17:17:21.012Z,15.90
2022-12-15T17:22:39.637Z,16.03
2022-12-15T17:25:11.220Z,16.07
2022-12-15T17:27:39.450Z,19.03
2022-12-15T17:30:14.375Z,20.40
2022-12-15T17:32:42.489Z,17.60
2022-12-15T17:35:11.191Z,16.67
2022-12-15T17:37:41.416Z,15.80
2022-12-15T17:40:18.098Z,14.70
2022-12-15T17:42:54.619Z,32.63
2022-12-15T17:45:24.444Z,26.97
2022-12-15T17:47:53.522Z,20.13
2022-12-15T17:50:21.386Z,30.27
2022-12-15T17:52:51.088Z,21.67
2022-12-15T17:55:22.713Z,24.07
2022-12-15T17:57:51.336Z,29.27
2022-12-15T18:00:23.150Z,20.40
2022-12-15T18:02:51.425Z,21.00
2022-12-15T18:05:20.537Z,19.03
2022-12-15T18:07:54.269Z,20.67
2022-12-15T18:10:27.043Z,32.60
2022-12-15T18:12:55.401Z,25.73
2022-12-15T18:15:25.550Z,24.20
2022-12-15T18:17:56.064Z,20.63
2022-12-15T18:20:24.772Z,18.20
2022-12-15T18:22:54.118Z,19.03
2022-12-15T18:25:26.054Z,21.27
2022-12-15T18:27:55.040Z,25.20
2022-12-15T18:30:24.812Z,26.97
2022-12-15T18:32:55.807Z,20.63
2022-12-15T18:35:29.858Z,20.30
2022-12-15T18:37:59.508Z,24.07
2022-12-15T18:40:30.789Z,20.20
2022-12-15T18:42:59.050Z,21.00
2022-12-15T18:45:28.359Z,20.07
2022-12-15T18:47:56.376Z,23.70
2022-12-15T18:50:26.897Z,27.00
2022-12-15T18:52:59.665Z,22.40
2022-12-15T18:55:31.123Z,22.83
2022-12-15T18:58:00.743Z,24.00
2022-12-15T19:00:30.563Z,24.97
2022-12-15T19:03:00.969Z,23.03
2022-12-15T19:05:32.585Z,25.37
2022-12-15T19:08:08.315Z,26.13
2022-12-15T19:10:41.285Z,22.73
2022-12-15T19:13:16.672Z,23.47
2022-12-15T19:15:45.176Z,24.43
2022-12-15T19:18:33.451Z,24.47
2022-12-15T19:21:28.945Z,22.60
2022-12-15T19:23:58.503Z,23.30
2022-12-15T19:26:26.638Z,22.20
2022-12-15T19:28:54.920Z,24.20
2022-12-15T19:31:23.029Z,23.47
2022-12-15T19:33:56.994Z,24.03
2022-12-15T19:36:25.669Z,23.93
2022-12-15T19:38:58.880Z,23.30
2022-12-15T19:41:27.651Z,23.70
2022-12-15T19:43:55.621Z,22.97
2022-12-15T19:46:24.043Z,27.40
2022-12-15T19:48:52.084Z,25.90
2022-12-15T19:51:23.151Z,24.37
2022-12-15T19:53:52.005Z,22.33
2022-12-15T19:56:23.687Z,20.30
2022-12-15T19:58:52.093Z,25.60
2022-12-15T20:01:21.286Z,24.37
2022-12-15T20:03:50.969Z,23.60
2022-12-15T20:06:21.381Z,25.47
2022-12-15T20:08:54.665Z,24.47
2022-12-15T20:11:26.647Z,23.77
2022-12-15T20:13:56.142Z,29.83
2022-12-15T20:16:24.889Z,25.20
2022-12-15T20:18:54.791Z,25.70
2022-12-15T20:21:27.521Z,22.67
2022-12-15T20:24:00.550Z,27.30
2022-12-15T20:26:33.160Z,27.50
2022-12-15T20:29:01.466Z,26.10
2022-12-15T20:31:29.536Z,25.27
2022-12-15T20:33:57.502Z,22.87
2022-12-15T20:36:30.703Z,23.20
2022-12-15T20:38:59.243Z,23.83
2022-12-15T20:41:28.911Z,25.07
2022-12-15T20:43:59.021Z,26.73
2022-12-15T20:46:30.225Z,23.00
2022-12-15T20:48:58.306Z,26.50
2022-12-15T20:51:28.057Z,25.17
2022-12-15T20:53:58.233Z,23.67
2022-12-15T20:56:27.555Z,26.07
2022-12-15T20:58:56.995Z,28.00
2022-12-15T21:01:32.003Z,24.80
2022-12-15T21:04:02.029Z,25.57
2022-12-15T21:06:31.628Z,25.37
2022-12-15T21:08:59.487Z,25.37
2022-12-15T21:11:29.758Z,23.67
2022-12-15T21:14:04.019Z,23.93
2022-12-15T21:16:35.584Z,24.23
2022-12-15T21:19:19.952Z,27.03
2022-12-15T21:21:52.244Z,26.37
2022-12-15T21:24:25.838Z,24.53
2022-12-15T21:26:54.998Z,25.10
2022-12-15T21:29:25.252Z,25.73
2022-12-15T21:31:54.775Z,25.77
2022-12-15T21:34:23.974Z,24.37
2022-12-15T21:36:55.105Z,25.67
2022-12-15T21:39:29.264Z,27.10
2022-12-15T21:41:59.219Z,24.20
2022-12-15T21:44:27.061Z,23.27
2022-12-15T21:46:56.360Z,25.97
2022-12-15T21:49:24.389Z,23.53
2022-12-15T21:51:54.878Z,23.60
2022-12-15T21:54:30.615Z,25.50
2022-12-15T21:57:00.007Z,27.97
2022-12-15T21:59:30.781Z,30.10
2022-12-15T22:02:00.935Z,25.53
2022-12-15T22:04:31.915Z,29.27
2022-12-15T22:06:59.849Z,25.37
2022-12-15T22:09:27.885Z,25.90
2022-12-15T22:11:57.614Z,26.50
2022-12-15T22:14:27.335Z,23.97
2022-12-15T22:16:55.678Z,25.77
2022-12-15T22:19:25.601Z,24.83
2022-12-15T22:21:53.630Z,24.83
2022-12-15T22:24:21.648Z,27.43
2022-12-15T22:26:50.024Z,24.63
2022-12-15T22:29:20.405Z,25.37
2022-12-15T22:31:49.512Z,26.67
2022-12-15T22:34:20.936Z,23.30
2022-12-15T22:36:50.773Z,26.77
2022-12-15T22:39:20.358Z,23.73
2022-12-15T22:41:50.430Z,25.00
2022-12-15T22:44:21.634Z,27.07
2022-12-15T22:46:50.985Z,26.33
2022-12-15T22:49:21.576Z,27.33
2022-12-15T22:51:51.411Z,24.53
2022-12-15T22:54:20.864Z,27.13
2022-12-15T22:56:51.781Z,25.13
2022-12-15T22:59:25.931Z,28.03
2022-12-15T23:01:54.156Z,24.83
2022-12-15T23:04:23.120Z,27.17
2022-12-15T23:06:52.540Z,25.43
2022-12-15T23:11:41.986Z,27.83
2022-12-15T23:14:12.206Z,26.37
2022-12-15T23:16:39.607Z,26.53
2022-12-15T23:19:09.042Z,25.40
2022-12-15T23:21:37.764Z,25.67
2022-12-15T23:24:05.894Z,27.77
2022-12-15T23:26:34.135Z,26.63
2022-12-15T23:29:03.885Z,27.50
2022-12-15T23:31:32.087Z,25.40
2022-12-15T23:34:00.400Z,28.13
2022-12-15T23:36:28.386Z,26.23
2022-12-15T23:38:57.848Z,29.33
2022-12-15T23:41:26.134Z,26.20
2022-12-15T23:43:54.208Z,30.37
2022-12-15T23:46:23.861Z,27.90
2022-12-15T23:48:51.871Z,30.17
2022-12-15T23:51:21.022Z,26.87
2022-12-15T23:53:49.434Z,27.00
2022-12-15T23:56:19.568Z,26.83
2022-12-15T23:58:49.609Z,27.27
